createdAt,value
2022-08-18T00:01:14.878Z,25.12
2022-08-18T00:03:56.581Z,25.11
2022-08-18T00:06:29.578Z,25.06
2022-08-18T00:09:01.625Z,25.01
2022-08-18T00:11:41.274Z,24.97
2022-08-18T00:14:22.208Z,24.93
2022-08-18T00:16:53.083Z,24.89
2022-08-18T00:19:24.751Z,24.83
2022-08-18T00:22:14.747Z,24.79
2022-08-18T00:24:49.074Z,24.77
2022-08-18T00:27:23.120Z,24.72
2022-08-18T00:29:52.354Z,24.68
2022-08-18T00:32:22.531Z,24.72
2022-08-18T00:34:51.033Z,24.73
2022-08-18T00:37:19.240Z,24.73
2022-08-18T00:39:48.960Z,24.63
2022-08-18T00:42:27.769Z,24.52
2022-08-18T00:45:01.570Z,24.48
2022-08-18T00:47:41.602Z,24.49
2022-08-18T00:50:16.022Z,24.45
2022-08-18T00:52:49.224Z,24.47
2022-08-18T00:55:20.553Z,24.46
2022-08-18T00:57:53.649Z,24.46
2022-08-18T01:00:23.008Z,24.39
2022-08-18T01:02:57.278Z,24.40
2022-08-18T01:05:34.075Z,24.33
2022-08-18T01:08:02.592Z,24.20
2022-08-18T01:10:35.667Z,24.26
2022-08-18T01:13:04.146Z,24.31
2022-08-18T01:15:32.671Z,24.33
2022-08-18T01:18:21.445Z,24.31
2022-08-18T01:21:14.489Z,24.19
2022-08-18T01:23:44.585Z,24.14
2022-08-18T01:26:13.046Z,24.16
2022-08-18T01:28:44.676Z,24.15
2022-08-18T01:31:30.506Z,24.11
2022-08-18T01:33:59.506Z,24.11
2022-08-18T01:36:28.058Z,24.13
2022-08-18T01:38:58.264Z,24.12
2022-08-18T01:41:30.880Z,24.14
2022-08-18T01:44:00.622Z,24.11
2022-08-18T01:46:32.004Z,24.08
2022-08-18T01:49:01.442Z,24.08
2022-08-18T01:51:38.770Z,24.04
2022-08-18T01:54:12.873Z,24.07
2022-08-18T01:56:43.460Z,24.04
2022-08-18T01:59:14.802Z,24.07
2022-08-18T02:01:48.677Z,24.07
2022-08-18T02:04:35.149Z,24.08
2022-08-18T02:07:05.500Z,24.04
2022-08-18T02:09:37.667Z,24.04
2022-08-18T02:12:07.370Z,24.07
2022-08-18T02:14:37.080Z,24.04
2022-08-18T02:17:07.886Z,24.14
2022-08-18T02:19:37.193Z,24.13
2022-08-18T02:22:06.326Z,24.07
2022-08-18T02:24:36.301Z,24.12
2022-08-18T02:27:04.716Z,24.14
2022-08-18T02:29:33.256Z,24.06
2022-08-18T02:32:01.484Z,24.08
2022-08-18T02:34:29.918Z,23.98
2022-08-18T02:36:58.176Z,24.04
2022-08-18T02:39:26.392Z,23.99
2022-08-18T02:41:56.038Z,23.97
2022-08-18T02:44:24.395Z,23.96
2022-08-18T02:46:55.123Z,23.92
2022-08-18T02:49:23.468Z,23.95
2022-08-18T02:51:52.691Z,23.93
2022-08-18T02:54:23.341Z,23.92
2022-08-18T02:56:52.438Z,23.91
2022-08-18T02:59:25.445Z,23.88
2022-08-18T03:01:56.459Z,23.91
2022-08-18T03:04:30.041Z,23.88
2022-08-18T03:07:01.892Z,23.91
2022-08-18T03:09:34.479Z,23.90
2022-08-18T03:12:03.173Z,23.90
2022-08-18T03:14:32.944Z,23.93
2022-08-18T03:17:01.310Z,23.93
2022-08-18T03:19:31.004Z,23.95
2022-08-18T03:22:02.825Z,24.02
2022-08-18T03:24:33.333Z,23.93
2022-08-18T03:27:05.926Z,24.00
2022-08-18T03:29:36.211Z,24.04
2022-08-18T03:32:07.275Z,24.02
2022-08-18T03:34:35.871Z,23.99
2022-08-18T03:37:04.292Z,24.11
2022-08-18T03:39:32.458Z,24.14
2022-08-18T03:42:02.118Z,24.20
2022-08-18T03:44:32.448Z,24.23
2022-08-18T03:47:03.166Z,24.28
2022-08-18T03:49:34.362Z,24.28
2022-08-18T03:52:02.798Z,24.29
2022-08-18T03:54:33.535Z,24.25
2022-08-18T03:57:01.848Z,24.30
2022-08-18T03:59:32.026Z,24.28
2022-08-18T04:02:05.874Z,24.39
2022-08-18T04:04:34.394Z,24.36
2022-08-18T04:07:05.848Z,24.41
2022-08-18T04:09:36.012Z,24.42
2022-08-18T04:12:10.512Z,24.54
2022-08-18T04:14:46.655Z,24.75
2022-08-18T04:17:16.635Z,24.80
2022-08-18T04:19:44.871Z,24.95
2022-08-18T04:22:17.417Z,24.95
2022-08-18T04:24:49.666Z,25.02
2022-08-18T04:27:18.589Z,25.13
2022-08-18T04:29:46.827Z,25.21
2022-08-18T04:32:16.571Z,25.27
2022-08-18T04:34:45.004Z,25.40
2022-08-18T04:37:15.557Z,25.61
2022-08-18T04:39:44.401Z,25.77
2022-08-18T04:42:12.906Z,25.94
2022-08-18T04:44:41.328Z,26.11
2022-08-18T04:47:11.381Z,26.23
2022-08-18T04:49:40.980Z,26.31
2022-08-18T04:52:39.847Z,26.43
2022-08-18T04:55:10.801Z,26.47
2022-08-18T04:57:39.266Z,26.53
2022-08-18T05:00:13.903Z,26.58
2022-08-18T05:02:42.253Z,26.62
2022-08-18T05:05:12.694Z,26.65
2022-08-18T05:07:46.801Z,26.74
2022-08-18T05:10:17.772Z,26.72
2022-08-18T05:12:49.017Z,26.73
2022-08-18T05:15:18.069Z,26.82
2022-08-18T05:17:50.494Z,26.91
2022-08-18T05:20:21.338Z,26.96
2022-08-18T05:22:49.466Z,26.98
2022-08-18T05:25:17.868Z,26.99
2022-08-18T05:27:46.217Z,27.03
2022-08-18T05:30:15.285Z,27.06
2022-08-18T05:32:49.664Z,27.15
2022-08-18T05:35:26.144Z,27.24
2022-08-18T05:38:23.082Z,27.30
2022-08-18T05:41:07.864Z,27.42
2022-08-18T05:43:51.381Z,27.38
2022-08-18T05:46:23.593Z,27.41
2022-08-18T05:48:52.223Z,27.44
2022-08-18T05:51:35.196Z,27.40
2022-08-18T05:54:23.745Z,27.41
2022-08-18T05:56:55.570Z,27.45
2022-08-18T05:59:27.763Z,27.52
2022-08-18T06:02:03.679Z,27.57
2022-08-18T06:04:41.376Z,27.58
2022-08-18T06:07:14.825Z,27.68
2022-08-18T06:09:48.744Z,27.74
2022-08-18T06:12:23.929Z,27.86
2022-08-18T06:14:52.696Z,27.93
2022-08-18T06:17:46.703Z,27.92
2022-08-18T06:20:24.900Z,27.93
2022-08-18T06:23:02.185Z,28.03
2022-08-18T06:25:41.198Z,28.11
2022-08-18T06:28:16.325Z,28.17
2022-08-18T06:30:50.860Z,28.22
2022-08-18T06:33:37.114Z,28.33
2022-08-18T06:36:13.335Z,28.48
2022-08-18T06:38:58.486Z,28.65
2022-08-18T06:41:42.415Z,28.75
2022-08-18T06:44:15.274Z,28.81
2022-08-18T06:46:47.613Z,28.87
2022-08-18T06:49:24.484Z,29.01
2022-08-18T06:51:53.151Z,29.04
2022-08-18T06:54:31.074Z,29.16
2022-08-18T06:57:00.347Z,29.18
2022-08-18T06:59:31.028Z,29.32
2022-08-18T07:02:04.171Z,29.28
2022-08-18T07:04:44.314Z,29.31
2022-08-18T07:07:21.714Z,29.40
2022-08-18T07:09:54.387Z,29.49
2022-08-18T07:12:29.158Z,29.60
2022-08-18T07:15:03.641Z,29.71
2022-08-18T07:17:52.815Z,29.69
2022-08-18T07:20:24.492Z,29.83
2022-08-18T07:22:54.887Z,29.85
2022-08-18T07:25:29.308Z,30.00
2022-08-18T07:27:57.640Z,30.09
2022-08-18T07:30:33.521Z,30.19
2022-08-18T07:33:12.473Z,30.38
2022-08-18T07:35:46.079Z,30.47
2022-08-18T07:41:16.197Z,30.63
2022-08-18T07:44:03.085Z,30.71
2022-08-18T07:46:37.762Z,30.77
2022-08-18T07:49:07.222Z,30.88
2022-08-18T07:51:53.119Z,30.88
2022-08-18T07:54:52.510Z,30.78
2022-08-18T07:57:41.884Z,30.92
2022-08-18T08:00:26.747Z,31.13
2022-08-18T08:03:21.582Z,31.22
2022-08-18T08:05:55.810Z,31.28
2022-08-18T08:08:35.321Z,31.29
2022-08-18T08:11:14.819Z,31.34
2022-08-18T08:13:58.735Z,31.50
2022-08-18T08:16:38.886Z,31.59
2022-08-18T08:19:42.434Z,31.70
2022-08-18T08:22:16.438Z,31.71
2022-08-18T08:24:55.427Z,31.78
2022-08-18T08:27:35.064Z,31.87
2022-08-18T08:30:11.844Z,31.91
2022-08-18T08:32:53.434Z,32.18
2022-08-18T08:35:48.786Z,32.33
2022-08-18T08:38:40.222Z,32.34
2022-08-18T08:41:15.461Z,32.33
2022-08-18T08:43:50.122Z,32.50
2022-08-18T08:46:23.459Z,32.56
2022-08-18T08:48:57.777Z,32.59
2022-08-18T08:51:36.385Z,32.65
2022-08-18T08:54:12.326Z,32.62
2022-08-18T08:56:46.736Z,32.76
2022-08-18T08:59:17.449Z,32.77
2022-08-18T09:01:56.885Z,32.71
2022-08-18T09:04:35.365Z,32.69
2022-08-18T09:07:18.023Z,32.78
2022-08-18T09:10:01.031Z,32.93
2022-08-18T09:12:44.806Z,33.06
2022-08-18T09:15:47.042Z,33.06
2022-08-18T09:18:36.489Z,33.10
2022-08-18T09:21:22.455Z,33.05
2022-08-18T09:23:54.651Z,32.94
2022-08-18T09:26:29.403Z,33.09
2022-08-18T09:29:01.978Z,33.13
2022-08-18T09:31:32.328Z,33.21
2022-08-18T09:34:26.356Z,33.26
2022-08-18T09:37:06.277Z,33.33
2022-08-18T09:39:56.715Z,33.50
2022-08-18T09:42:33.976Z,33.61
2022-08-18T09:45:55.434Z,33.63
2022-08-18T09:48:30.477Z,33.54
2022-08-18T09:51:32.135Z,33.57
2022-08-18T09:54:14.662Z,33.76
2022-08-18T09:57:19.497Z,33.72
2022-08-18T09:59:54.459Z,33.65
2022-08-18T10:03:12.135Z,33.70
2022-08-18T10:05:42.844Z,33.68
2022-08-18T10:08:48.347Z,33.69
2022-08-18T10:11:32.393Z,33.82
2022-08-18T10:14:27.504Z,33.82
2022-08-18T10:17:23.896Z,33.83
2022-08-18T10:20:05.310Z,33.83
2022-08-18T10:22:46.759Z,33.93
2022-08-18T10:25:34.396Z,34.03
2022-08-18T10:28:06.041Z,34.20
2022-08-18T10:31:06.442Z,34.20
2022-08-18T10:33:58.164Z,34.25
2022-08-18T10:36:53.295Z,34.14
2022-08-18T10:39:23.836Z,34.14
2022-08-18T10:42:06.340Z,34.10
2022-08-18T10:44:42.163Z,34.13
2022-08-18T10:47:12.542Z,34.25
2022-08-18T10:49:46.704Z,34.26
2022-08-18T10:52:34.951Z,34.29
2022-08-18T10:55:48.316Z,34.42
2022-08-18T10:58:43.073Z,34.55
2022-08-18T11:01:21.960Z,34.65
2022-08-18T11:04:23.011Z,34.68
2022-08-18T11:07:10.868Z,34.58
2022-08-18T11:09:42.177Z,34.52
2022-08-18T11:12:54.253Z,34.58
2022-08-18T11:15:31.734Z,34.71
2022-08-18T11:18:19.615Z,34.79
2022-08-18T11:20:48.903Z,34.80
2022-08-18T11:23:18.687Z,34.75
2022-08-18T11:25:48.444Z,34.62
2022-08-18T11:28:19.256Z,34.37
2022-08-18T11:30:52.676Z,34.38
2022-08-18T11:33:24.710Z,34.67
2022-08-18T11:35:57.926Z,34.73
2022-08-18T11:41:22.458Z,34.87
2022-08-18T11:43:59.795Z,34.88
2022-08-18T11:46:33.472Z,35.01
2022-08-18T11:49:17.209Z,35.16
2022-08-18T11:52:02.201Z,35.18
2022-08-18T11:54:50.833Z,35.22
2022-08-18T11:57:46.527Z,35.21
2022-08-18T12:00:45.679Z,35.07
2022-08-18T12:03:28.498Z,35.01
2022-08-18T12:05:58.708Z,35.25
2022-08-18T12:08:56.422Z,35.37
2022-08-18T12:11:27.860Z,35.32
2022-08-18T12:16:54.077Z,35.33
2022-08-18T12:19:25.254Z,35.15
2022-08-18T12:21:57.008Z,35.33
2022-08-18T12:24:28.828Z,35.60
2022-08-18T12:27:20.847Z,35.65
2022-08-18T12:29:50.759Z,35.66
2022-08-18T12:32:50.231Z,35.77
2022-08-18T12:35:12.305Z,35.86
2022-08-18T12:38:04.957Z,35.62
2022-08-18T12:40:33.195Z,35.44
2022-08-18T12:43:01.598Z,35.59
2022-08-18T12:45:31.261Z,35.69
2022-08-18T12:48:04.301Z,35.76
2022-08-18T12:50:39.444Z,35.64
2022-08-18T12:53:18.643Z,35.79
2022-08-18T12:55:59.517Z,35.89
2022-08-18T12:58:28.753Z,35.92
2022-08-18T13:00:56.948Z,35.90
2022-08-18T13:03:25.211Z,35.86
2022-08-18T13:05:57.303Z,35.86
2022-08-18T13:08:33.412Z,35.91
2022-08-18T13:11:14.949Z,35.93
2022-08-18T13:13:53.187Z,35.94
2022-08-18T13:16:30.689Z,35.96
2022-08-18T13:19:07.973Z,36.16
2022-08-18T13:21:42.981Z,36.24
2022-08-18T13:24:12.769Z,36.22
2022-08-18T13:26:45.787Z,36.28
2022-08-18T13:29:17.579Z,36.23
2022-08-18T13:31:57.261Z,36.37
2022-08-18T13:34:27.705Z,36.35
2022-08-18T13:36:59.782Z,36.28
2022-08-18T13:39:31.295Z,36.45
2022-08-18T13:42:26.731Z,36.38
2022-08-18T13:44:53.239Z,36.39
2022-08-18T13:47:22.158Z,36.31
2022-08-18T13:49:58.283Z,36.18
2022-08-18T13:52:34.770Z,36.22
2022-08-18T13:55:08.431Z,36.39
2022-08-18T13:57:37.276Z,36.48
2022-08-18T14:00:08.059Z,36.41
2022-08-18T14:02:48.775Z,36.37
2022-08-18T14:05:17.587Z,36.41
2022-08-18T14:07:47.257Z,36.45
2022-08-18T14:10:18.702Z,36.31
2022-08-18T14:12:47.520Z,36.27
2022-08-18T14:15:17.923Z,36.22
2022-08-18T14:17:46.997Z,35.96
2022-08-18T14:20:34.103Z,36.09
2022-08-18T14:23:34.385Z,36.16
2022-08-18T14:26:23.259Z,36.20
2022-08-18T14:28:55.937Z,36.17
2022-08-18T14:31:24.454Z,36.29
2022-08-18T14:33:54.181Z,36.27
2022-08-18T14:36:29.658Z,36.17
2022-08-18T14:39:00.038Z,35.96
2022-08-18T14:41:28.276Z,35.96
2022-08-18T14:44:12.901Z,35.90
2022-08-18T14:46:52.190Z,35.99
2022-08-18T14:49:29.316Z,35.99
2022-08-18T14:51:59.948Z,36.03
2022-08-18T14:54:31.307Z,36.04
2022-08-18T14:57:01.868Z,36.04
2022-08-18T14:59:37.474Z,36.04
2022-08-18T15:02:11.283Z,35.91
2022-08-18T15:04:55.786Z,36.02
2022-08-18T15:07:24.605Z,35.96
2022-08-18T15:10:14.517Z,36.09
2022-08-18T15:12:43.773Z,36.11
2022-08-18T15:15:15.895Z,36.01
2022-08-18T15:17:50.280Z,35.94
2022-08-18T15:20:24.024Z,35.87
2022-08-18T15:23:22.765Z,35.70
2022-08-18T15:25:55.054Z,35.61
2022-08-18T15:28:27.554Z,35.74
2022-08-18T15:33:43.949Z,35.75
2022-08-18T15:36:24.079Z,35.76
2022-08-18T15:38:58.072Z,35.65
2022-08-18T15:41:34.180Z,35.46
2022-08-18T15:44:03.713Z,35.50
2022-08-18T15:46:34.549Z,35.53
2022-08-18T15:49:05.752Z,35.50
2022-08-18T15:51:35.524Z,35.43
2022-08-18T15:54:12.446Z,35.40
2022-08-18T15:56:43.440Z,35.53
2022-08-18T15:59:11.677Z,35.32
2022-08-18T16:01:43.471Z,35.12
2022-08-18T16:04:15.417Z,35.20
2022-08-18T16:06:47.920Z,35.17
2022-08-18T16:09:17.160Z,35.05
2022-08-18T16:11:47.888Z,35.01
2022-08-18T16:14:16.175Z,35.00
2022-08-18T16:16:44.850Z,35.06
2022-08-18T16:19:14.550Z,34.95
2022-08-18T16:21:42.922Z,35.03
2022-08-18T16:24:17.841Z,34.91
2022-08-18T16:26:47.857Z,34.92
2022-08-18T16:29:17.067Z,34.96
2022-08-18T16:31:45.338Z,34.95
2022-08-18T16:34:18.700Z,34.91
2022-08-18T16:36:54.229Z,34.74
2022-08-18T16:39:26.911Z,34.83
2022-08-18T16:42:08.963Z,34.78
2022-08-18T16:44:40.091Z,34.80
2022-08-18T16:47:09.806Z,34.72
2022-08-18T16:49:39.072Z,34.59
2022-08-18T16:52:11.695Z,34.47
2022-08-18T16:54:43.535Z,34.39
2022-08-18T16:57:53.743Z,34.42
2022-08-18T17:00:41.898Z,34.41
2022-08-18T17:03:27.745Z,34.40
2022-08-18T17:06:08.233Z,34.29
2022-08-18T17:08:37.407Z,34.24
2022-08-18T17:11:08.920Z,34.17
2022-08-18T17:13:40.367Z,34.03
2022-08-18T17:16:09.564Z,33.98
2022-08-18T17:18:38.249Z,33.74
2022-08-18T17:21:09.842Z,33.54
2022-08-18T17:23:38.950Z,33.36
2022-08-18T17:26:10.296Z,33.13
2022-08-18T17:28:50.246Z,32.86
2022-08-18T17:31:21.035Z,32.69
2022-08-18T17:33:49.648Z,32.57
2022-08-18T17:36:23.804Z,32.39
2022-08-18T17:38:58.483Z,32.12
2022-08-18T17:41:27.870Z,31.88
2022-08-18T17:44:00.886Z,31.79
2022-08-18T17:46:39.532Z,31.62
2022-08-18T17:49:13.238Z,31.58
2022-08-18T17:51:46.217Z,31.46
2022-08-18T17:54:25.408Z,31.34
2022-08-18T17:56:56.903Z,31.26
2022-08-18T17:59:46.409Z,31.11
2022-08-18T18:02:29.154Z,30.87
2022-08-18T18:04:59.095Z,30.79
2022-08-18T18:07:29.697Z,30.68
2022-08-18T18:10:01.288Z,30.67
2022-08-18T18:12:32.447Z,30.63
2022-08-18T18:15:03.816Z,30.51
2022-08-18T18:17:37.956Z,30.39
2022-08-18T18:20:17.020Z,30.29
2022-08-18T18:22:46.338Z,30.27
2022-08-18T18:25:34.504Z,30.19
2022-08-18T18:28:03.143Z,30.15
2022-08-18T18:30:33.717Z,30.05
2022-08-18T18:33:06.482Z,30.00
2022-08-18T18:35:54.698Z,29.91
2022-08-18T18:38:28.679Z,29.89
2022-08-18T18:41:00.677Z,29.84
2022-08-18T18:43:38.273Z,29.80
2022-08-18T18:46:27.320Z,29.66
2022-08-18T18:49:08.156Z,29.53
2022-08-18T18:51:43.864Z,29.56
2022-08-18T18:54:23.309Z,29.47
2022-08-18T18:56:54.701Z,29.34
2022-08-18T18:59:35.631Z,29.32
2022-08-18T19:02:33.579Z,29.21
2022-08-18T19:05:18.078Z,29.15
2022-08-18T19:07:59.536Z,29.07
2022-08-18T19:10:37.606Z,29.09
2022-08-18T19:13:29.960Z,29.02
2022-08-18T19:16:05.062Z,28.90
2022-08-18T19:18:39.638Z,28.83
2022-08-18T19:22:04.633Z,28.77
2022-08-18T19:24:06.081Z,28.72
2022-08-18T19:26:40.652Z,28.67
2022-08-18T19:29:14.267Z,28.74
2022-08-18T19:31:48.020Z,28.64
2022-08-18T19:34:22.795Z,28.59
2022-08-18T19:37:02.723Z,28.54
2022-08-18T19:39:40.537Z,28.48
2022-08-18T19:42:17.992Z,28.42
2022-08-18T19:45:14.890Z,28.45
2022-08-18T19:47:51.278Z,28.41
2022-08-18T19:50:29.794Z,28.38
2022-08-18T19:53:13.770Z,28.35
2022-08-18T19:56:21.406Z,28.32
2022-08-18T19:59:17.095Z,28.28
2022-08-18T20:01:56.831Z,28.19
2022-08-18T20:04:40.921Z,28.10
2022-08-18T20:07:31.481Z,28.05
2022-08-18T20:10:20.793Z,27.99
2022-08-18T20:13:17.565Z,27.98
2022-08-18T20:16:11.388Z,28.02
2022-08-18T20:18:41.623Z,27.99
2022-08-18T20:21:43.226Z,28.01
2022-08-18T20:24:36.407Z,27.93
2022-08-18T20:27:23.236Z,27.95
2022-08-18T20:30:06.828Z,27.92
2022-08-18T20:32:37.635Z,27.92
2022-08-18T20:35:19.279Z,27.84
2022-08-18T20:37:47.420Z,27.76
2022-08-18T20:40:43.134Z,27.70
2022-08-18T20:43:27.592Z,27.65
2022-08-18T20:46:16.023Z,27.67
2022-08-18T20:49:06.179Z,27.59
2022-08-18T20:51:42.740Z,27.53
2022-08-18T20:54:32.501Z,27.64
2022-08-18T20:57:04.262Z,27.57
2022-08-18T20:59:37.055Z,27.53
2022-08-18T21:02:08.585Z,27.45
2022-08-18T21:04:56.501Z,27.37
2022-08-18T21:07:36.856Z,27.28
2022-08-18T21:10:13.946Z,27.17
2022-08-18T21:12:53.712Z,27.07
2022-08-18T21:15:24.445Z,27.05
2022-08-18T21:18:00.029Z,27.03
2022-08-18T21:20:29.406Z,27.01
2022-08-18T21:23:07.696Z,26.98
2022-08-18T21:25:36.781Z,26.89
2022-08-18T21:28:07.794Z,26.88
2022-08-18T21:30:35.959Z,26.81
2022-08-18T21:33:21.202Z,26.93
2022-08-18T21:35:50.270Z,26.97
2022-08-18T21:38:27.249Z,26.96
2022-08-18T21:40:59.268Z,26.91
2022-08-18T21:43:49.378Z,26.86
2022-08-18T21:46:24.753Z,26.73
2022-08-18T21:48:55.514Z,26.66
2022-08-18T21:51:27.373Z,26.66
2022-08-18T21:53:56.606Z,26.68
2022-08-18T21:56:28.744Z,26.72
2022-08-18T21:59:10.981Z,26.68
2022-08-18T22:01:48.093Z,26.69
2022-08-18T22:04:25.893Z,26.67
2022-08-18T22:06:56.221Z,26.60
2022-08-18T22:09:46.600Z,26.63
2022-08-18T22:12:45.866Z,26.59
2022-08-18T22:15:19.704Z,26.53
2022-08-18T22:17:55.404Z,26.44
2022-08-18T22:20:44.437Z,26.39
2022-08-18T22:23:58.831Z,26.31
2022-08-18T22:26:29.396Z,26.23
2022-08-18T22:29:04.767Z,26.15
2022-08-18T22:31:36.571Z,26.06
2022-08-18T22:34:07.662Z,26.02
2022-08-18T22:36:38.843Z,25.97
2022-08-18T22:39:08.545Z,25.91
2022-08-18T22:41:37.098Z,25.86
2022-08-18T22:44:05.727Z,25.75
2022-08-18T22:46:36.389Z,25.66
2022-08-18T22:49:04.852Z,25.54
2022-08-18T22:51:37.018Z,25.51
2022-08-18T22:54:08.290Z,25.51
2022-08-18T22:56:38.005Z,25.48
2022-08-18T22:59:13.528Z,25.43
2022-08-18T23:01:48.977Z,25.41
2022-08-18T23:04:19.533Z,25.41
2022-08-18T23:06:52.138Z,25.36
2022-08-18T23:09:23.687Z,25.34
2022-08-18T23:11:53.062Z,25.37
2022-08-18T23:14:24.420Z,25.31
2022-08-18T23:16:55.451Z,25.30
2022-08-18T23:19:23.570Z,25.25
2022-08-18T23:21:52.455Z,25.24
2022-08-18T23:24:22.129Z,25.29
2022-08-18T23:26:50.543Z,25.29
2022-08-18T23:29:19.952Z,25.24
2022-08-18T23:31:51.745Z,25.23
2022-08-18T23:34:24.733Z,25.27
2022-08-18T23:36:56.184Z,25.24
2022-08-18T23:39:24.564Z,25.26
2022-08-18T23:41:53.258Z,25.34
2022-08-18T23:44:23.831Z,25.28
2022-08-18T23:46:56.285Z,25.29
2022-08-18T23:49:26.440Z,25.29
2022-08-18T23:51:56.149Z,25.25
2022-08-18T23:54:27.135Z,25.18
2022-08-18T23:56:56.731Z,25.10
2022-08-18T23:59:27.386Z,25.09
